createdAt,value
2023-05-22T00:00:38.907Z,17.92
2023-05-22T00:05:41.273Z,20.65
2023-05-22T00:10:42.927Z,20.95
2023-05-22T00:15:44.418Z,22.05
2023-05-22T00:20:46.560Z,19.35
2023-05-22T00:25:48.299Z,23.27
2023-05-22T00:30:49.760Z,25.10
2023-05-22T00:35:51.373Z,23.55
2023-05-22T00:40:52.802Z,24.95
2023-05-22T00:45:54.713Z,26.95
2023-05-22T00:50:57.499Z,23.55
2023-05-22T00:55:59.641Z,23.42
2023-05-22T01:01:01.938Z,23.45
2023-05-22T01:06:03.820Z,22.92
2023-05-22T01:11:10.498Z,20.67
2023-05-22T01:16:18.998Z,24.52
2023-05-22T01:21:35.786Z,21.30
2023-05-22T01:26:37.241Z,25.10
2023-05-22T01:31:43.133Z,20.73
2023-05-22T01:36:46.158Z,21.65
2023-05-22T01:41:48.264Z,19.98
2023-05-22T01:46:49.735Z,19.45
2023-05-22T01:51:57.881Z,20.40
2023-05-22T01:57:07.515Z,20.33
2023-05-22T02:02:10.635Z,22.60
2023-05-22T02:07:13.839Z,18.52
2023-05-22T02:12:15.885Z,22.92
2023-05-22T02:17:20.395Z,22.63
2023-05-22T02:22:21.923Z,23.42
2023-05-22T02:27:23.545Z,23.58
2023-05-22T02:32:24.986Z,23.58
2023-05-22T02:37:26.482Z,27.00
2023-05-22T02:42:27.980Z,27.02
2023-05-22T02:47:29.614Z,28.70
2023-05-22T02:52:31.593Z,28.45
2023-05-22T02:57:33.118Z,26.17
2023-05-22T03:02:36.583Z,24.55
2023-05-22T03:07:38.204Z,23.50
2023-05-22T03:12:39.653Z,72.82
2023-05-22T03:17:41.072Z,23.15
2023-05-22T03:22:43.227Z,25.27
2023-05-22T03:27:44.790Z,23.27
2023-05-22T03:32:46.257Z,21.92
2023-05-22T03:37:48.167Z,21.83
2023-05-22T03:42:50.020Z,24.50
2023-05-22T03:47:51.675Z,27.92
2023-05-22T03:52:53.188Z,24.25
2023-05-22T03:57:54.678Z,23.80
2023-05-22T04:02:59.312Z,23.88
2023-05-22T04:08:00.936Z,30.67
2023-05-22T04:13:02.566Z,28.73
2023-05-22T04:18:04.104Z,27.70
2023-05-22T04:23:07.253Z,27.95
2023-05-22T04:28:09.464Z,29.67
2023-05-22T04:33:11.087Z,28.95
2023-05-22T04:38:13.057Z,27.33
2023-05-22T04:43:14.569Z,31.25
2023-05-22T04:48:16.363Z,25.48
2023-05-22T04:53:17.831Z,26.40
2023-05-22T04:58:19.280Z,28.50
2023-05-22T05:03:21.145Z,28.20
2023-05-22T05:08:22.642Z,26.70
2023-05-22T05:13:24.093Z,26.42
2023-05-22T05:18:26.210Z,26.40
2023-05-22T05:23:27.636Z,29.63
2023-05-22T05:28:29.082Z,30.00
2023-05-22T05:33:30.918Z,29.08
2023-05-22T05:38:32.392Z,30.90
2023-05-22T05:43:33.885Z,31.00
2023-05-22T05:48:35.414Z,32.75
2023-05-22T05:53:43.050Z,30.38
2023-05-22T05:58:44.487Z,31.02
2023-05-22T06:03:46.123Z,28.77
2023-05-22T06:08:47.761Z,29.08
2023-05-22T06:13:49.266Z,34.80
2023-05-22T06:18:52.631Z,30.08
2023-05-22T06:23:54.140Z,27.35
2023-05-22T06:28:55.642Z,28.05
2023-05-22T06:33:57.257Z,24.98
2023-05-22T06:38:58.844Z,22.13
2023-05-22T06:44:02.123Z,23.38
2023-05-22T06:49:04.261Z,24.88
2023-05-22T06:54:07.361Z,22.10
2023-05-22T06:59:10.209Z,32.70
2023-05-22T07:04:13.390Z,15.15
2023-05-22T07:09:15.602Z,16.65
2023-05-22T07:14:18.133Z,13.77
2023-05-22T07:19:20.608Z,20.08
2023-05-22T07:24:22.069Z,13.75
2023-05-22T07:29:23.549Z,17.08
2023-05-22T07:34:31.879Z,14.82
2023-05-22T07:39:33.413Z,15.07
2023-05-22T07:44:35.742Z,17.25
2023-05-22T07:49:37.360Z,12.43
2023-05-22T07:54:39.085Z,13.25
2023-05-22T07:59:44.068Z,13.93
2023-05-22T08:04:45.594Z,12.63
2023-05-22T08:09:47.135Z,12.35
2023-05-22T08:14:48.665Z,15.30
2023-05-22T08:19:50.328Z,13.40
2023-05-22T08:24:51.841Z,14.10
2023-05-22T08:29:53.384Z,14.60
2023-05-22T08:34:54.821Z,16.77
2023-05-22T08:39:56.266Z,19.20
2023-05-22T08:45:00.992Z,17.88
2023-05-22T08:50:03.117Z,16.45
2023-05-22T08:55:05.554Z,16.08
2023-05-22T09:00:07.915Z,17.17
2023-05-22T09:05:09.739Z,14.77
2023-05-22T09:10:11.551Z,15.00
2023-05-22T09:15:13.853Z,12.63
2023-05-22T09:20:15.762Z,14.60
2023-05-22T09:25:21.244Z,13.82
2023-05-22T09:30:22.739Z,12.18
2023-05-22T09:35:25.678Z,10.50
2023-05-22T09:40:27.395Z,10.73
2023-05-22T09:45:28.907Z,10.35
2023-05-22T09:50:30.437Z,12.77
2023-05-22T09:55:32.246Z,9.90
2023-05-22T10:00:34.237Z,9.93
2023-05-22T10:05:36.059Z,11.18
2023-05-22T10:10:38.877Z,12.07
2023-05-22T10:15:41.145Z,11.40
2023-05-22T10:20:42.749Z,12.85
2023-05-22T10:25:44.629Z,12.43
2023-05-22T10:31:24.760Z,15.63
2023-05-22T10:36:35.071Z,13.00
2023-05-22T10:41:36.673Z,9.98
2023-05-22T10:46:38.124Z,14.07
2023-05-22T10:51:39.720Z,11.50
2023-05-22T10:56:41.297Z,12.13
2023-05-22T11:01:42.869Z,12.48
2023-05-22T11:07:02.375Z,12.93
2023-05-22T11:12:22.913Z,11.95
2023-05-22T11:17:31.292Z,12.88
2023-05-22T11:27:34.858Z,11.13
2023-05-22T11:32:39.096Z,11.93
2023-05-22T11:37:40.620Z,16.08
2023-05-22T11:42:42.282Z,14.00
2023-05-22T11:47:44.422Z,12.15
2023-05-22T11:52:46.717Z,14.00
2023-05-22T11:57:48.269Z,12.50
2023-05-22T12:02:49.885Z,12.15
2023-05-22T12:07:51.529Z,14.45
2023-05-22T12:12:54.439Z,13.60
2023-05-22T12:17:56.444Z,14.20
2023-05-22T12:22:58.985Z,15.73
2023-05-22T12:28:00.593Z,17.00
2023-05-22T12:33:02.111Z,14.73
2023-05-22T12:38:03.612Z,13.18
2023-05-22T12:43:05.105Z,10.68
2023-05-22T12:48:06.744Z,11.45
2023-05-22T12:53:08.274Z,9.95
2023-05-22T12:58:09.754Z,11.60
2023-05-22T13:03:12.422Z,12.45
2023-05-22T13:08:13.925Z,14.70
2023-05-22T13:13:15.399Z,12.23
2023-05-22T13:18:16.938Z,12.95
2023-05-22T13:23:18.384Z,14.00
2023-05-22T13:28:19.838Z,12.77
2023-05-22T13:33:21.428Z,13.68
2023-05-22T13:38:22.869Z,9.95
2023-05-22T13:43:24.346Z,12.18
2023-05-22T13:48:25.807Z,9.13
2023-05-22T13:53:27.582Z,10.30
2023-05-22T13:58:29.075Z,10.98
2023-05-22T14:03:30.630Z,10.05
2023-05-22T14:08:32.102Z,10.40
2023-05-22T14:13:33.544Z,9.20
2023-05-22T14:18:35.009Z,9.77
2023-05-22T14:23:36.529Z,10.32
2023-05-22T14:28:37.973Z,8.68
2023-05-22T14:33:39.541Z,11.40
2023-05-22T14:38:41.407Z,8.98
2023-05-22T14:43:42.835Z,9.00
2023-05-22T14:48:44.273Z,9.40
2023-05-22T14:53:45.821Z,10.77
2023-05-22T14:58:48.601Z,10.05
2023-05-22T15:03:50.105Z,10.05
2023-05-22T15:08:51.596Z,9.60
2023-05-22T15:13:54.384Z,11.52
2023-05-22T15:18:56.071Z,10.98
2023-05-22T15:23:58.877Z,10.35
2023-05-22T15:29:01.396Z,9.70
2023-05-22T15:34:02.971Z,11.38
2023-05-22T15:39:04.428Z,10.02
2023-05-22T15:44:09.407Z,10.20
2023-05-22T15:49:11.690Z,12.18
2023-05-22T15:54:13.129Z,11.98
2023-05-22T15:59:14.599Z,10.35
2023-05-22T16:04:16.206Z,13.73
2023-05-22T16:09:19.436Z,15.50
2023-05-22T16:14:21.093Z,13.25
2023-05-22T16:19:23.327Z,10.40
2023-05-22T16:24:24.938Z,12.55
2023-05-22T16:29:26.470Z,10.77
2023-05-22T16:34:28.170Z,12.57
2023-05-22T16:39:29.636Z,11.68
2023-05-22T16:44:31.105Z,13.57
2023-05-22T16:49:32.724Z,10.65
2023-05-22T16:54:34.409Z,11.57
2023-05-22T16:59:36.149Z,13.02
2023-05-22T17:04:37.746Z,10.90
2023-05-22T17:09:40.585Z,11.10
2023-05-22T17:14:42.048Z,12.00
2023-05-22T17:19:43.529Z,13.52
2023-05-22T17:24:45.164Z,13.02
2023-05-22T17:29:46.627Z,13.55
2023-05-22T17:34:48.051Z,14.38
2023-05-22T17:39:49.512Z,13.35
2023-05-22T17:44:51.024Z,14.65
2023-05-22T17:49:52.455Z,15.50
2023-05-22T17:54:55.943Z,14.32
2023-05-22T17:59:57.409Z,14.65
2023-05-22T18:04:58.963Z,14.00
2023-05-22T18:10:00.467Z,15.43
2023-05-22T18:15:02.020Z,18.77
2023-05-22T18:20:06.325Z,14.95
2023-05-22T18:25:09.916Z,15.93
2023-05-22T18:30:11.589Z,20.40
2023-05-22T18:35:13.205Z,16.30
2023-05-22T18:40:15.411Z,18.88
2023-05-22T18:45:16.908Z,15.82
2023-05-22T18:50:18.466Z,13.85
2023-05-22T18:55:19.949Z,12.90
2023-05-22T19:00:21.448Z,11.65
2023-05-22T19:05:22.942Z,17.33
2023-05-22T19:10:24.419Z,16.52
2023-05-22T19:15:26.145Z,14.68
2023-05-22T19:20:27.668Z,13.27
2023-05-22T19:25:29.133Z,12.57
2023-05-22T19:30:30.681Z,10.07
2023-05-22T19:35:32.166Z,8.82
2023-05-22T19:40:33.721Z,9.05
2023-05-22T19:45:35.324Z,10.30
2023-05-22T19:50:36.886Z,8.48
2023-05-22T19:55:38.365Z,10.13
2023-05-22T20:00:41.279Z,8.43
2023-05-22T20:05:43.061Z,8.30
2023-05-22T20:10:44.685Z,9.18
2023-05-22T20:15:47.833Z,10.00
2023-05-22T20:20:49.729Z,9.10
2023-05-22T20:25:51.493Z,9.85
2023-05-22T20:30:52.994Z,10.57
2023-05-22T20:35:54.546Z,10.90
2023-05-22T20:40:58.580Z,10.68
2023-05-22T20:46:00.096Z,12.95
2023-05-22T20:51:01.649Z,12.10
2023-05-22T20:56:03.162Z,11.55
2023-05-22T21:01:04.745Z,13.18
2023-05-22T21:06:06.373Z,15.15
2023-05-22T21:11:07.853Z,16.67
2023-05-22T21:16:09.278Z,15.93
2023-05-22T21:21:10.765Z,19.00
2023-05-22T21:26:12.223Z,19.45
2023-05-22T21:31:13.925Z,21.20
2023-05-22T21:36:15.906Z,21.70
2023-05-22T21:41:17.410Z,16.63
2023-05-22T21:46:18.885Z,20.38
2023-05-22T21:51:20.435Z,21.02
2023-05-22T21:56:21.932Z,17.15
2023-05-22T22:01:23.472Z,20.25
2023-05-22T22:06:24.955Z,18.58
2023-05-22T22:11:26.610Z,20.27
2023-05-22T22:16:28.564Z,23.30
2023-05-22T22:21:30.373Z,20.70
2023-05-22T22:26:32.338Z,20.52
2023-05-22T22:31:33.758Z,19.77
2023-05-22T22:36:35.619Z,21.30
2023-05-22T22:41:37.025Z,20.23
2023-05-22T22:46:38.489Z,21.23
2023-05-22T22:51:39.904Z,25.08
2023-05-22T22:56:41.449Z,21.02
2023-05-22T23:01:43.076Z,22.05
2023-05-22T23:06:44.722Z,25.00
2023-05-22T23:11:46.185Z,20.90
2023-05-22T23:16:47.700Z,18.13
2023-05-22T23:21:49.175Z,13.23
2023-05-22T23:26:52.786Z,17.33
2023-05-22T23:31:54.548Z,19.95
2023-05-22T23:36:56.277Z,18.77
2023-05-22T23:41:57.875Z,17.80
2023-05-22T23:46:59.691Z,15.48
2023-05-22T23:52:01.283Z,14.90
2023-05-22T23:57:02.735Z,16.10
